sensor_id;sensor_type;location;lat;lon;timestamp;temperature;humidity
60033;DHT22;45905;50.570;10.428;2023-05-17T00:01:44;6.70;80.20
60033;DHT22;45905;50.570;10.428;2023-05-17T00:04:12;6.70;80.40
60033;DHT22;45905;50.570;10.428;2023-05-17T00:06:39;6.70;79.80
60033;DHT22;45905;50.570;10.428;2023-05-17T00:09:07;6.60;79.20
60033;DHT22;45905;50.570;10.428;2023-05-17T00:11:34;6.50;79.00
60033;DHT22;45905;50.570;10.428;2023-05-17T00:14:02;6.50;80.00
60033;DHT22;45905;50.570;10.428;2023-05-17T00:16:29;6.40;80.90
60033;DHT22;45905;50.570;10.428;2023-05-17T00:18:56;6.40;81.70
60033;DHT22;45905;50.570;10.428;2023-05-17T00:21:23;6.40;81.80
60033;DHT22;45905;50.570;10.428;2023-05-17T00:23:51;6.40;83.20
60033;DHT22;45905;50.570;10.428;2023-05-17T00:26:18;6.30;82.10
60033;DHT22;45905;50.570;10.428;2023-05-17T00:28:48;6.30;82.90
60033;DHT22;45905;50.570;10.428;2023-05-17T00:31:16;6.20;82.80
60033;DHT22;45905;50.570;10.428;2023-05-17T00:33:43;6.20;83.90
60033;DHT22;45905;50.570;10.428;2023-05-17T00:36:10;6.10;82.80
60033;DHT22;45905;50.570;10.428;2023-05-17T00:38:37;6.10;83.00
60033;DHT22;45905;50.570;10.428;2023-05-17T00:41:05;6.00;83.60
60033;DHT22;45905;50.570;10.428;2023-05-17T00:43:32;6.00;84.10
60033;DHT22;45905;50.570;10.428;2023-05-17T00:45:59;6.00;84.70
60033;DHT22;45905;50.570;10.428;2023-05-17T00:48:27;6.00;84.80
60033;DHT22;45905;50.570;10.428;2023-05-17T00:50:57;6.00;84.70
60033;DHT22;45905;50.570;10.428;2023-05-17T00:53:25;5.90;85.10
60033;DHT22;45905;50.570;10.428;2023-05-17T00:55:54;5.80;85.20
60033;DHT22;45905;50.570;10.428;2023-05-17T00:58:22;5.80;85.60
60033;DHT22;45905;50.570;10.428;2023-05-17T01:00:51;5.80;84.80
60033;DHT22;45905;50.570;10.428;2023-05-17T01:03:18;5.80;85.40
60033;DHT22;45905;50.570;10.428;2023-05-17T01:05:50;5.80;85.60
60033;DHT22;45905;50.570;10.428;2023-05-17T01:08:17;6.10;85.50
60033;DHT22;45905;50.570;10.428;2023-05-17T01:11:00;5.70;84.00
60033;DHT22;45905;50.570;10.428;2023-05-17T01:13:54;5.70;84.40
60033;DHT22;45905;50.570;10.428;2023-05-17T01:16:32;5.60;84.40
60033;DHT22;45905;50.570;10.428;2023-05-17T01:25:13;5.50;84.00
60033;DHT22;45905;50.570;10.428;2023-05-17T01:27:55;5.60;84.00
60033;DHT22;45905;50.570;10.428;2023-05-17T01:30:26;5.50;84.30
60033;DHT22;45905;50.570;10.428;2023-05-17T01:32:56;5.60;88.20
60033;DHT22;45905;50.570;10.428;2023-05-17T01:35:25;6.10;89.20
60033;DHT22;45905;50.570;10.428;2023-05-17T01:37:53;5.40;90.00
60033;DHT22;45905;50.570;10.428;2023-05-17T01:40:20;5.50;85.30
60033;DHT22;45905;50.570;10.428;2023-05-17T01:42:53;5.40;85.40
60033;DHT22;45905;50.570;10.428;2023-05-17T01:45:29;5.60;86.30
60033;DHT22;45905;50.570;10.428;2023-05-17T01:48:22;5.30;85.60
60033;DHT22;45905;50.570;10.428;2023-05-17T01:50:58;5.30;85.30
60033;DHT22;45905;50.570;10.428;2023-05-17T01:56:25;5.10;87.30
60033;DHT22;45905;50.570;10.428;2023-05-17T01:58:55;5.10;87.40
60033;DHT22;45905;50.570;10.428;2023-05-17T02:01:27;5.30;87.20
60033;DHT22;45905;50.570;10.428;2023-05-17T02:03:56;4.90;91.60
60033;DHT22;45905;50.570;10.428;2023-05-17T02:11:19;5.20;91.80
60033;DHT22;45905;50.570;10.428;2023-05-17T02:28:34;5.00;90.70
60033;DHT22;45905;50.570;10.428;2023-05-17T02:38:24;5.30;90.30
60033;DHT22;45905;50.570;10.428;2023-05-17T02:40:52;5.20;90.80
60033;DHT22;45905;50.570;10.428;2023-05-17T02:43:19;5.00;91.20
60033;DHT22;45905;50.570;10.428;2023-05-17T02:45:46;5.30;92.20
60033;DHT22;45905;50.570;10.428;2023-05-17T03:10:24;5.60;91.80
60033;DHT22;45905;50.570;10.428;2023-05-17T03:25:16;5.40;91.90
60033;DHT22;45905;50.570;10.428;2023-05-17T03:27:43;4.90;91.30
60033;DHT22;45905;50.570;10.428;2023-05-17T03:30:11;4.90;93.90
60033;DHT22;45905;50.570;10.428;2023-05-17T03:32:39;5.20;93.70
60033;DHT22;45905;50.570;10.428;2023-05-17T03:35:07;4.80;92.30
60033;DHT22;45905;50.570;10.428;2023-05-17T03:40:04;5.10;91.10
60033;DHT22;45905;50.570;10.428;2023-05-17T03:47:29;5.30;92.20
60033;DHT22;45905;50.570;10.428;2023-05-17T04:04:51;5.10;93.10
60033;DHT22;45905;50.570;10.428;2023-05-17T04:14:43;5.30;93.90
60033;DHT22;45905;50.570;10.428;2023-05-17T04:31:58;5.70;94.10
60033;DHT22;45905;50.570;10.428;2023-05-17T04:34:25;6.10;95.20
60033;DHT22;45905;50.570;10.428;2023-05-17T04:36:55;6.20;95.90
60033;DHT22;45905;50.570;10.428;2023-05-17T04:39:22;6.20;95.00
60033;DHT22;45905;50.570;10.428;2023-05-17T04:44:18;5.80;96.20
60033;DHT22;45905;50.570;10.428;2023-05-17T04:56:37;6.30;95.40
60033;DHT22;45905;50.570;10.428;2023-05-17T04:59:09;6.50;96.80
60033;DHT22;45905;50.570;10.428;2023-05-17T05:01:38;6.20;94.40
60033;DHT22;45905;50.570;10.428;2023-05-17T05:06:39;6.20;94.80
60033;DHT22;45905;50.570;10.428;2023-05-17T05:09:07;6.40;95.00
60033;DHT22;45905;50.570;10.428;2023-05-17T05:14:04;6.40;94.60
60033;DHT22;45905;50.570;10.428;2023-05-17T05:33:55;6.90;94.70
60033;DHT22;45905;50.570;10.428;2023-05-17T05:46:17;7.50;94.80
60033;DHT22;45905;50.570;10.428;2023-05-17T05:48:45;7.50;94.60
60033;DHT22;45905;50.570;10.428;2023-05-17T05:51:12;7.40;94.80
60033;DHT22;45905;50.570;10.428;2023-05-17T05:53:41;7.50;94.90
60033;DHT22;45905;50.570;10.428;2023-05-17T05:56:08;7.60;94.70
60033;DHT22;45905;50.570;10.428;2023-05-17T05:58:37;7.60;94.70
60033;DHT22;45905;50.570;10.428;2023-05-17T06:01:05;7.70;94.70
60033;DHT22;45905;50.570;10.428;2023-05-17T06:03:35;7.80;94.60
60033;DHT22;45905;50.570;10.428;2023-05-17T06:06:03;7.80;94.40
60033;DHT22;45905;50.570;10.428;2023-05-17T06:08:30;7.80;94.30
60033;DHT22;45905;50.570;10.428;2023-05-17T06:10:58;7.80;94.30
60033;DHT22;45905;50.570;10.428;2023-05-17T06:13:25;7.90;94.40
60033;DHT22;45905;50.570;10.428;2023-05-17T06:15:52;8.00;94.30
60033;DHT22;45905;50.570;10.428;2023-05-17T06:18:19;7.90;94.20
60033;DHT22;45905;50.570;10.428;2023-05-17T06:20:46;8.00;94.20
60033;DHT22;45905;50.570;10.428;2023-05-17T06:23:14;8.00;94.20
60033;DHT22;45905;50.570;10.428;2023-05-17T06:25:41;8.10;94.40
60033;DHT22;45905;50.570;10.428;2023-05-17T06:28:08;8.10;94.40
60033;DHT22;45905;50.570;10.428;2023-05-17T06:30:35;8.10;94.50
60033;DHT22;45905;50.570;10.428;2023-05-17T06:33:02;8.10;94.50
60033;DHT22;45905;50.570;10.428;2023-05-17T06:35:30;8.10;94.50
60033;DHT22;45905;50.570;10.428;2023-05-17T06:38:13;8.20;94.60
60033;DHT22;45905;50.570;10.428;2023-05-17T06:40:40;8.20;94.80
60033;DHT22;45905;50.570;10.428;2023-05-17T06:43:07;8.30;95.10
60033;DHT22;45905;50.570;10.428;2023-05-17T06:45:37;8.30;95.00
60033;DHT22;45905;50.570;10.428;2023-05-17T06:48:04;8.50;94.80
60033;DHT22;45905;50.570;10.428;2023-05-17T06:50:31;8.50;94.80
60033;DHT22;45905;50.570;10.428;2023-05-17T06:52:59;8.60;94.60
60033;DHT22;45905;50.570;10.428;2023-05-17T06:55:26;8.70;94.60
60033;DHT22;45905;50.570;10.428;2023-05-17T06:57:56;8.80;94.70
60033;DHT22;45905;50.570;10.428;2023-05-17T07:00:23;8.70;94.30
60033;DHT22;45905;50.570;10.428;2023-05-17T07:02:51;8.60;94.50
60033;DHT22;45905;50.570;10.428;2023-05-17T07:05:19;9.00;94.50
60033;DHT22;45905;50.570;10.428;2023-05-17T07:07:49;8.70;94.70
60033;DHT22;45905;50.570;10.428;2023-05-17T07:10:16;9.10;94.60
60033;DHT22;45905;50.570;10.428;2023-05-17T07:12:44;8.60;94.30
60033;DHT22;45905;50.570;10.428;2023-05-17T07:15:11;9.30;94.20
60033;DHT22;45905;50.570;10.428;2023-05-17T07:17:38;8.90;94.00
60033;DHT22;45905;50.570;10.428;2023-05-17T07:20:06;9.30;93.60
60033;DHT22;45905;50.570;10.428;2023-05-17T07:25:05;9.40;93.00
60033;DHT22;45905;50.570;10.428;2023-05-17T07:34:57;9.80;92.10
60033;DHT22;45905;50.570;10.428;2023-05-17T07:44:47;9.90;93.00
60033;DHT22;45905;50.570;10.428;2023-05-17T07:49:43;9.70;91.70
60033;DHT22;45905;50.570;10.428;2023-05-17T07:54:38;10.70;90.30
60033;DHT22;45905;50.570;10.428;2023-05-17T07:57:05;10.00;89.40
60033;DHT22;45905;50.570;10.428;2023-05-17T08:02:00;10.20;87.30
60033;DHT22;45905;50.570;10.428;2023-05-17T08:11:49;9.90;86.10
60033;DHT22;45905;50.570;10.428;2023-05-17T08:14:17;10.30;85.20
60033;DHT22;45905;50.570;10.428;2023-05-17T08:16:47;10.70;90.30
60033;DHT22;45905;50.570;10.428;2023-05-17T08:19:14;10.20;92.00
60033;DHT22;45905;50.570;10.428;2023-05-17T08:21:42;10.20;89.00
60033;DHT22;45905;50.570;10.428;2023-05-17T08:26:38;10.50;86.00
60033;DHT22;45905;50.570;10.428;2023-05-17T08:29:05;10.60;84.20
60033;DHT22;45905;50.570;10.428;2023-05-17T08:31:32;10.70;82.20
60033;DHT22;45905;50.570;10.428;2023-05-17T08:33:59;10.70;81.70
60033;DHT22;45905;50.570;10.428;2023-05-17T08:36:27;10.70;80.90
60033;DHT22;45905;50.570;10.428;2023-05-17T08:38:54;10.70;81.30
60033;DHT22;45905;50.570;10.428;2023-05-17T08:41:21;10.70;81.80
60033;DHT22;45905;50.570;10.428;2023-05-17T08:43:48;10.70;79.10
60033;DHT22;45905;50.570;10.428;2023-05-17T08:46:21;10.70;79.60
60033;DHT22;45905;50.570;10.428;2023-05-17T08:48:49;10.70;77.90
60033;DHT22;45905;50.570;10.428;2023-05-17T08:51:19;10.70;78.70
60033;DHT22;45905;50.570;10.428;2023-05-17T08:53:47;10.70;79.60
60033;DHT22;45905;50.570;10.428;2023-05-17T08:56:17;10.80;79.80
60033;DHT22;45905;50.570;10.428;2023-05-17T08:58:47;10.80;80.00
60033;DHT22;45905;50.570;10.428;2023-05-17T09:01:24;10.80;80.40
60033;DHT22;45905;50.570;10.428;2023-05-17T09:03:54;10.80;81.20
60033;DHT22;45905;50.570;10.428;2023-05-17T09:06:22;10.80;81.20
60033;DHT22;45905;50.570;10.428;2023-05-17T09:08:53;10.80;82.00
60033;DHT22;45905;50.570;10.428;2023-05-17T09:11:25;10.90;81.90
60033;DHT22;45905;50.570;10.428;2023-05-17T09:14:02;10.90;81.70
60033;DHT22;45905;50.570;10.428;2023-05-17T09:16:31;10.90;80.80
60033;DHT22;45905;50.570;10.428;2023-05-17T09:19:05;10.90;81.40
60033;DHT22;45905;50.570;10.428;2023-05-17T09:21:35;10.90;82.00
60033;DHT22;45905;50.570;10.428;2023-05-17T09:24:02;10.90;82.80
60033;DHT22;45905;50.570;10.428;2023-05-17T09:26:44;10.90;81.70
60033;DHT22;45905;50.570;10.428;2023-05-17T09:29:15;10.90;80.60
60033;DHT22;45905;50.570;10.428;2023-05-17T09:31:43;11.00;80.50
60033;DHT22;45905;50.570;10.428;2023-05-17T09:34:10;11.00;80.40
60033;DHT22;45905;50.570;10.428;2023-05-17T09:36:41;11.00;80.00
60033;DHT22;45905;50.570;10.428;2023-05-17T09:39:10;11.00;79.80
60033;DHT22;45905;50.570;10.428;2023-05-17T09:41:44;11.00;79.60
60033;DHT22;45905;50.570;10.428;2023-05-17T09:44:14;11.00;80.20
60033;DHT22;45905;50.570;10.428;2023-05-17T09:46:46;11.10;80.80
60033;DHT22;45905;50.570;10.428;2023-05-17T09:49:16;10.70;80.40
60033;DHT22;45905;50.570;10.428;2023-05-17T09:51:45;11.20;79.20
60033;DHT22;45905;50.570;10.428;2023-05-17T09:54:14;11.30;79.80
60033;DHT22;45905;50.570;10.428;2023-05-17T09:56:43;11.30;78.90
60033;DHT22;45905;50.570;10.428;2023-05-17T09:59:15;11.40;78.40
60033;DHT22;45905;50.570;10.428;2023-05-17T10:01:43;11.50;77.60
60033;DHT22;45905;50.570;10.428;2023-05-17T10:04:12;11.50;75.40
60033;DHT22;45905;50.570;10.428;2023-05-17T10:06:40;11.70;75.90
60033;DHT22;45905;50.570;10.428;2023-05-17T10:09:20;11.70;72.50
60033;DHT22;45905;50.570;10.428;2023-05-17T10:11:51;11.80;71.90
60033;DHT22;45905;50.570;10.428;2023-05-17T10:14:30;11.80;68.10
60033;DHT22;45905;50.570;10.428;2023-05-17T10:17:00;11.80;67.50
60033;DHT22;45905;50.570;10.428;2023-05-17T10:19:29;11.80;68.00
60033;DHT22;45905;50.570;10.428;2023-05-17T10:21:57;11.80;66.10
60033;DHT22;45905;50.570;10.428;2023-05-17T10:24:46;11.80;66.40
60033;DHT22;45905;50.570;10.428;2023-05-17T10:27:15;11.90;66.00
60033;DHT22;45905;50.570;10.428;2023-05-17T10:29:43;11.90;68.80
60033;DHT22;45905;50.570;10.428;2023-05-17T10:32:15;12.00;71.10
60033;DHT22;45905;50.570;10.428;2023-05-17T10:34:45;12.00;71.20
60033;DHT22;45905;50.570;10.428;2023-05-17T10:37:32;12.00;71.70
60033;DHT22;45905;50.570;10.428;2023-05-17T10:40:00;12.00;71.20
60033;DHT22;45905;50.570;10.428;2023-05-17T10:42:30;12.10;71.40
60033;DHT22;45905;50.570;10.428;2023-05-17T10:44:59;12.10;70.30
60033;DHT22;45905;50.570;10.428;2023-05-17T10:47:31;12.10;69.20
60033;DHT22;45905;50.570;10.428;2023-05-17T10:49:59;12.10;68.70
60033;DHT22;45905;50.570;10.428;2023-05-17T10:52:27;12.20;69.00
60033;DHT22;45905;50.570;10.428;2023-05-17T10:54:58;12.20;69.10
60033;DHT22;45905;50.570;10.428;2023-05-17T10:57:34;12.30;68.60
60033;DHT22;45905;50.570;10.428;2023-05-17T11:00:06;12.30;68.60
60033;DHT22;45905;50.570;10.428;2023-05-17T11:02:39;12.40;67.60
60033;DHT22;45905;50.570;10.428;2023-05-17T11:05:22;12.40;67.50
60033;DHT22;45905;50.570;10.428;2023-05-17T11:08:13;12.50;66.90
60033;DHT22;45905;50.570;10.428;2023-05-17T11:11:09;12.50;66.40
60033;DHT22;45905;50.570;10.428;2023-05-17T11:16:27;12.60;66.40
60033;DHT22;45905;50.570;10.428;2023-05-17T11:19:08;12.80;66.10
60033;DHT22;45905;50.570;10.428;2023-05-17T11:21:47;12.80;66.60
60033;DHT22;45905;50.570;10.428;2023-05-17T11:24:18;12.80;67.60
60033;DHT22;45905;50.570;10.428;2023-05-17T11:26:53;12.90;65.10
60033;DHT22;45905;50.570;10.428;2023-05-17T11:29:28;12.90;66.30
60033;DHT22;45905;50.570;10.428;2023-05-17T11:31:56;13.00;66.50
60033;DHT22;45905;50.570;10.428;2023-05-17T11:34:23;13.10;66.30
60033;DHT22;45905;50.570;10.428;2023-05-17T11:36:54;13.10;64.90
60033;DHT22;45905;50.570;10.428;2023-05-17T11:39:23;13.20;66.20
60033;DHT22;45905;50.570;10.428;2023-05-17T11:41:52;13.30;65.20
60033;DHT22;45905;50.570;10.428;2023-05-17T11:44:28;13.40;65.20
60033;DHT22;45905;50.570;10.428;2023-05-17T11:47:04;13.50;64.60
60033;DHT22;45905;50.570;10.428;2023-05-17T11:49:39;13.50;64.10
60033;DHT22;45905;50.570;10.428;2023-05-17T11:52:07;13.50;63.50
60033;DHT22;45905;50.570;10.428;2023-05-17T11:54:38;13.50;63.20
60033;DHT22;45905;50.570;10.428;2023-05-17T11:57:07;13.60;63.40
60033;DHT22;45905;50.570;10.428;2023-05-17T11:59:37;13.60;62.50
60033;DHT22;45905;50.570;10.428;2023-05-17T12:02:06;13.70;64.30
60033;DHT22;45905;50.570;10.428;2023-05-17T12:04:37;13.80;61.00
60033;DHT22;45905;50.570;10.428;2023-05-17T12:07:08;13.90;61.80
60033;DHT22;45905;50.570;10.428;2023-05-17T12:09:38;14.00;60.90
60033;DHT22;45905;50.570;10.428;2023-05-17T12:12:06;14.10;61.40
60033;DHT22;45905;50.570;10.428;2023-05-17T12:14:34;14.10;61.20
60033;DHT22;45905;50.570;10.428;2023-05-17T12:17:05;14.20;61.60
60033;DHT22;45905;50.570;10.428;2023-05-17T12:19:34;14.30;60.10
60033;DHT22;45905;50.570;10.428;2023-05-17T12:22:09;14.30;60.80
60033;DHT22;45905;50.570;10.428;2023-05-17T12:24:41;14.40;61.30
60033;DHT22;45905;50.570;10.428;2023-05-17T12:27:09;14.60;60.30
60033;DHT22;45905;50.570;10.428;2023-05-17T12:29:37;14.60;60.70
60033;DHT22;45905;50.570;10.428;2023-05-17T12:32:06;14.70;60.40
60033;DHT22;45905;50.570;10.428;2023-05-17T12:34:36;14.80;59.90
60033;DHT22;45905;50.570;10.428;2023-05-17T12:37:05;14.80;59.90
60033;DHT22;45905;50.570;10.428;2023-05-17T12:39:36;14.80;58.70
60033;DHT22;45905;50.570;10.428;2023-05-17T12:42:04;14.90;59.50
60033;DHT22;45905;50.570;10.428;2023-05-17T12:44:32;14.90;60.00
60033;DHT22;45905;50.570;10.428;2023-05-17T12:47:01;15.00;59.60
60033;DHT22;45905;50.570;10.428;2023-05-17T12:49:28;15.20;58.60
60033;DHT22;45905;50.570;10.428;2023-05-17T12:52:02;15.30;59.40
60033;DHT22;45905;50.570;10.428;2023-05-17T12:54:32;15.50;58.20
60033;DHT22;45905;50.570;10.428;2023-05-17T12:57:11;15.70;57.10
60033;DHT22;45905;50.570;10.428;2023-05-17T12:59:48;15.80;58.00
60033;DHT22;45905;50.570;10.428;2023-05-17T13:02:19;15.90;57.50
60033;DHT22;45905;50.570;10.428;2023-05-17T13:04:46;16.10;55.40
60033;DHT22;45905;50.570;10.428;2023-05-17T13:07:21;16.20;56.00
60033;DHT22;45905;50.570;10.428;2023-05-17T13:09:52;16.30;54.60
60033;DHT22;45905;50.570;10.428;2023-05-17T13:12:23;16.40;55.10
60033;DHT22;45905;50.570;10.428;2023-05-17T13:14:51;16.40;55.20
60033;DHT22;45905;50.570;10.428;2023-05-17T13:17:25;16.50;55.30
60033;DHT22;45905;50.570;10.428;2023-05-17T13:20:00;16.50;53.00
60033;DHT22;45905;50.570;10.428;2023-05-17T13:22:27;16.40;54.40
60033;DHT22;45905;50.570;10.428;2023-05-17T13:24:55;16.40;54.90
60033;DHT22;45905;50.570;10.428;2023-05-17T13:27:22;16.50;54.60
60033;DHT22;45905;50.570;10.428;2023-05-17T13:29:49;16.60;54.90
60033;DHT22;45905;50.570;10.428;2023-05-17T13:32:16;16.60;52.50
60033;DHT22;45905;50.570;10.428;2023-05-17T13:34:44;16.60;53.80
60033;DHT22;45905;50.570;10.428;2023-05-17T13:37:11;16.60;53.40
60033;DHT22;45905;50.570;10.428;2023-05-17T13:39:40;16.60;53.80
60033;DHT22;45905;50.570;10.428;2023-05-17T13:42:08;16.70;54.20
60033;DHT22;45905;50.570;10.428;2023-05-17T13:44:36;16.80;52.30
60033;DHT22;45905;50.570;10.428;2023-05-17T13:47:05;16.80;52.30
60033;DHT22;45905;50.570;10.428;2023-05-17T13:49:33;16.80;51.90
60033;DHT22;45905;50.570;10.428;2023-05-17T13:52:00;16.90;51.70
60033;DHT22;45905;50.570;10.428;2023-05-17T13:54:29;16.90;52.70
60033;DHT22;45905;50.570;10.428;2023-05-17T13:56:56;17.10;51.30
60033;DHT22;45905;50.570;10.428;2023-05-17T13:59:23;17.20;50.50
60033;DHT22;45905;50.570;10.428;2023-05-17T14:01:51;17.20;51.40
60033;DHT22;45905;50.570;10.428;2023-05-17T14:04:18;17.30;51.20
60033;DHT22;45905;50.570;10.428;2023-05-17T14:06:47;17.30;51.90
60033;DHT22;45905;50.570;10.428;2023-05-17T14:09:17;17.50;52.10
60033;DHT22;45905;50.570;10.428;2023-05-17T14:11:44;17.50;50.90
60033;DHT22;45905;50.570;10.428;2023-05-17T14:14:12;17.70;51.10
60033;DHT22;45905;50.570;10.428;2023-05-17T14:16:39;17.70;51.20
60033;DHT22;45905;50.570;10.428;2023-05-17T14:19:06;17.80;50.90
60033;DHT22;45905;50.570;10.428;2023-05-17T14:21:33;17.80;50.10
60033;DHT22;45905;50.570;10.428;2023-05-17T14:24:01;17.80;50.00
60033;DHT22;45905;50.570;10.428;2023-05-17T14:26:28;17.90;50.40
60033;DHT22;45905;50.570;10.428;2023-05-17T14:28:56;17.90;50.00
60033;DHT22;45905;50.570;10.428;2023-05-17T14:31:23;17.90;48.70
60033;DHT22;45905;50.570;10.428;2023-05-17T14:33:50;17.80;48.60
60033;DHT22;45905;50.570;10.428;2023-05-17T14:36:17;17.70;48.00
60033;DHT22;45905;50.570;10.428;2023-05-17T14:38:44;17.60;49.50
60033;DHT22;45905;50.570;10.428;2023-05-17T14:41:12;17.60;50.00
60033;DHT22;45905;50.570;10.428;2023-05-17T14:43:39;17.50;49.40
60033;DHT22;45905;50.570;10.428;2023-05-17T14:46:06;17.50;49.30
60033;DHT22;45905;50.570;10.428;2023-05-17T14:48:33;17.50;48.90
60033;DHT22;45905;50.570;10.428;2023-05-17T14:51:00;17.50;48.90
60033;DHT22;45905;50.570;10.428;2023-05-17T14:53:29;17.50;47.80
60033;DHT22;45905;50.570;10.428;2023-05-17T14:55:57;17.40;48.90
60033;DHT22;45905;50.570;10.428;2023-05-17T14:58:25;17.50;48.30
60033;DHT22;45905;50.570;10.428;2023-05-17T15:00:53;17.50;48.60
60033;DHT22;45905;50.570;10.428;2023-05-17T15:03:32;17.50;48.90
60033;DHT22;45905;50.570;10.428;2023-05-17T15:06:00;17.40;48.80
60033;DHT22;45905;50.570;10.428;2023-05-17T15:08:32;17.40;49.50
60033;DHT22;45905;50.570;10.428;2023-05-17T15:11:00;17.50;49.40
60033;DHT22;45905;50.570;10.428;2023-05-17T15:13:27;17.50;49.20
60033;DHT22;45905;50.570;10.428;2023-05-17T15:15:55;17.50;48.60
60033;DHT22;45905;50.570;10.428;2023-05-17T15:18:22;17.50;48.40
60033;DHT22;45905;50.570;10.428;2023-05-17T15:20:50;17.50;49.40
60033;DHT22;45905;50.570;10.428;2023-05-17T15:23:17;17.50;49.70
60033;DHT22;45905;50.570;10.428;2023-05-17T15:25:44;17.60;48.40
60033;DHT22;45905;50.570;10.428;2023-05-17T15:28:12;17.50;49.00
60033;DHT22;45905;50.570;10.428;2023-05-17T15:30:39;17.50;48.60
60033;DHT22;45905;50.570;10.428;2023-05-17T15:33:07;17.50;49.10
60033;DHT22;45905;50.570;10.428;2023-05-17T15:35:38;17.50;48.70
60033;DHT22;45905;50.570;10.428;2023-05-17T15:38:07;17.40;48.50
60033;DHT22;45905;50.570;10.428;2023-05-17T15:40:34;17.30;48.60
60033;DHT22;45905;50.570;10.428;2023-05-17T15:43:01;17.30;49.50
60033;DHT22;45905;50.570;10.428;2023-05-17T15:45:28;17.20;48.50
60033;DHT22;45905;50.570;10.428;2023-05-17T15:47:56;17.10;48.90
60033;DHT22;45905;50.570;10.428;2023-05-17T15:50:23;17.00;49.50
60033;DHT22;45905;50.570;10.428;2023-05-17T15:52:50;17.00;48.90
60033;DHT22;45905;50.570;10.428;2023-05-17T15:55:18;16.90;49.50
60033;DHT22;45905;50.570;10.428;2023-05-17T15:57:45;16.90;50.30
60033;DHT22;45905;50.570;10.428;2023-05-17T16:00:13;16.80;50.50
60033;DHT22;45905;50.570;10.428;2023-05-17T16:02:40;16.80;50.40
60033;DHT22;45905;50.570;10.428;2023-05-17T16:05:08;16.80;50.00
60033;DHT22;45905;50.570;10.428;2023-05-17T16:07:35;16.70;50.00
60033;DHT22;45905;50.570;10.428;2023-05-17T16:10:02;16.70;50.90
60033;DHT22;45905;50.570;10.428;2023-05-17T16:12:30;16.60;50.10
60033;DHT22;45905;50.570;10.428;2023-05-17T16:14:57;16.50;50.30
60033;DHT22;45905;50.570;10.428;2023-05-17T16:17:24;16.40;50.80
60033;DHT22;45905;50.570;10.428;2023-05-17T16:19:52;16.40;51.30
60033;DHT22;45905;50.570;10.428;2023-05-17T16:22:19;16.40;51.80
60033;DHT22;45905;50.570;10.428;2023-05-17T16:24:51;16.30;51.40
60033;DHT22;45905;50.570;10.428;2023-05-17T16:27:20;16.30;51.70
60033;DHT22;45905;50.570;10.428;2023-05-17T16:29:48;16.30;52.40
60033;DHT22;45905;50.570;10.428;2023-05-17T16:32:15;16.10;50.90
60033;DHT22;45905;50.570;10.428;2023-05-17T16:34:42;16.10;51.50
60033;DHT22;45905;50.570;10.428;2023-05-17T16:37:10;16.00;51.20
60033;DHT22;45905;50.570;10.428;2023-05-17T16:39:37;15.90;50.80
60033;DHT22;45905;50.570;10.428;2023-05-17T16:42:04;15.70;50.50
60033;DHT22;45905;50.570;10.428;2023-05-17T16:44:32;15.60;50.90
60033;DHT22;45905;50.570;10.428;2023-05-17T16:46:59;15.50;51.90
60033;DHT22;45905;50.570;10.428;2023-05-17T16:49:26;15.40;51.40
60033;DHT22;45905;50.570;10.428;2023-05-17T16:51:55;15.20;51.30
60033;DHT22;45905;50.570;10.428;2023-05-17T16:54:23;15.20;51.50
60033;DHT22;45905;50.570;10.428;2023-05-17T16:56:52;15.10;51.70
60033;DHT22;45905;50.570;10.428;2023-05-17T16:59:19;15.00;51.80
60033;DHT22;45905;50.570;10.428;2023-05-17T17:01:47;14.90;51.90
60033;DHT22;45905;50.570;10.428;2023-05-17T17:04:14;14.80;51.90
60033;DHT22;45905;50.570;10.428;2023-05-17T17:06:41;14.70;51.80
60033;DHT22;45905;50.570;10.428;2023-05-17T17:09:09;14.60;52.00
60033;DHT22;45905;50.570;10.428;2023-05-17T17:11:37;14.50;52.80
60033;DHT22;45905;50.570;10.428;2023-05-17T17:14:05;14.50;53.10
60033;DHT22;45905;50.570;10.428;2023-05-17T17:16:32;14.40;53.00
60033;DHT22;45905;50.570;10.428;2023-05-17T17:19:00;14.40;52.40
60033;DHT22;45905;50.570;10.428;2023-05-17T17:21:27;14.20;52.30
60033;DHT22;45905;50.570;10.428;2023-05-17T17:23:58;14.20;52.90
60033;DHT22;45905;50.570;10.428;2023-05-17T17:26:25;14.10;53.40
60033;DHT22;45905;50.570;10.428;2023-05-17T17:28:52;14.00;53.40
60033;DHT22;45905;50.570;10.428;2023-05-17T17:31:19;14.00;54.20
60033;DHT22;45905;50.570;10.428;2023-05-17T17:33:46;14.00;54.10
60033;DHT22;45905;50.570;10.428;2023-05-17T17:36:13;14.00;53.70
60033;DHT22;45905;50.570;10.428;2023-05-17T17:38:41;14.00;54.00
60033;DHT22;45905;50.570;10.428;2023-05-17T17:41:08;14.00;54.80
60033;DHT22;45905;50.570;10.428;2023-05-17T17:43:36;14.10;54.20
60033;DHT22;45905;50.570;10.428;2023-05-17T17:46:03;14.10;54.20
60033;DHT22;45905;50.570;10.428;2023-05-17T17:48:30;14.20;53.60
60033;DHT22;45905;50.570;10.428;2023-05-17T17:50:57;14.20;53.50
60033;DHT22;45905;50.570;10.428;2023-05-17T17:53:25;14.20;53.70
60033;DHT22;45905;50.570;10.428;2023-05-17T17:55:53;14.30;54.00
60033;DHT22;45905;50.570;10.428;2023-05-17T17:58:20;14.30;53.90
60033;DHT22;45905;50.570;10.428;2023-05-17T18:00:47;14.40;53.80
60033;DHT22;45905;50.570;10.428;2023-05-17T18:03:19;14.40;53.80
60033;DHT22;45905;50.570;10.428;2023-05-17T18:05:46;14.40;53.40
60033;DHT22;45905;50.570;10.428;2023-05-17T18:08:13;14.30;53.10
60033;DHT22;45905;50.570;10.428;2023-05-17T18:10:40;14.30;53.00
60033;DHT22;45905;50.570;10.428;2023-05-17T18:13:07;14.30;53.10
60033;DHT22;45905;50.570;10.428;2023-05-17T18:15:35;14.30;53.20
60033;DHT22;45905;50.570;10.428;2023-05-17T18:18:02;14.30;53.80
60033;DHT22;45905;50.570;10.428;2023-05-17T18:20:29;14.30;53.80
60033;DHT22;45905;50.570;10.428;2023-05-17T18:22:57;14.30;53.60
60033;DHT22;45905;50.570;10.428;2023-05-17T18:25:24;14.20;53.60
60033;DHT22;45905;50.570;10.428;2023-05-17T18:27:52;14.20;53.80
60033;DHT22;45905;50.570;10.428;2023-05-17T18:30:19;14.20;54.00
60033;DHT22;45905;50.570;10.428;2023-05-17T18:32:46;14.20;54.20
60033;DHT22;45905;50.570;10.428;2023-05-17T18:35:13;14.10;54.10
60033;DHT22;45905;50.570;10.428;2023-05-17T18:37:41;14.10;53.90
60033;DHT22;45905;50.570;10.428;2023-05-17T18:40:08;13.90;53.20
60033;DHT22;45905;50.570;10.428;2023-05-17T18:42:36;13.80;53.40
60033;DHT22;45905;50.570;10.428;2023-05-17T18:45:04;13.60;54.10
60033;DHT22;45905;50.570;10.428;2023-05-17T18:47:32;13.50;54.40
60033;DHT22;45905;50.570;10.428;2023-05-17T18:49:59;13.40;54.80